createdAt,value
2022-07-30T00:01:05.701Z,81.00
2022-07-30T00:03:33.234Z,81.40
2022-07-30T00:06:00.801Z,81.90
2022-07-30T00:08:28.375Z,82.50
2022-07-30T00:10:55.949Z,83.10
2022-07-30T00:13:23.552Z,83.60
2022-07-30T00:15:51.886Z,84.80
2022-07-30T00:18:19.469Z,84.80
2022-07-30T00:20:47.378Z,84.20
2022-07-30T00:23:14.943Z,84.60
2022-07-30T00:25:42.517Z,85.10
2022-07-30T00:28:10.111Z,85.90
2022-07-30T00:30:37.694Z,86.60
2022-07-30T00:33:08.079Z,88.10
2022-07-30T00:35:33.633Z,88.10
2022-07-30T00:38:01.984Z,87.60
2022-07-30T00:40:29.546Z,87.50
2022-07-30T00:42:57.140Z,87.10
2022-07-30T00:45:24.863Z,87.60
2022-07-30T00:50:29.009Z,88.40
2022-07-30T00:52:57.362Z,89.60
2022-07-30T00:55:24.935Z,89.60
2022-07-30T00:57:52.541Z,90.00
2022-07-30T01:00:20.114Z,90.60
2022-07-30T01:02:47.698Z,90.30
2022-07-30T01:05:15.281Z,90.40
2022-07-30T01:07:42.858Z,90.50
2022-07-30T01:10:11.197Z,90.70
2022-07-30T01:12:38.791Z,90.70
2022-07-30T01:15:07.146Z,91.10
2022-07-30T01:17:34.707Z,91.00
2022-07-30T01:20:20.716Z,91.30
2022-07-30T01:22:57.573Z,91.70
2022-07-30T01:25:46.139Z,91.40
2022-07-30T01:28:14.481Z,91.30
2022-07-30T01:30:42.065Z,91.30
2022-07-30T01:33:09.649Z,91.00
2022-07-30T01:35:38.001Z,91.60
2022-07-30T01:38:05.575Z,91.60
2022-07-30T01:40:33.948Z,92.00
2022-07-30T01:43:01.522Z,92.00
2022-07-30T01:45:29.901Z,92.40
2022-07-30T01:47:57.456Z,92.40
2022-07-30T01:50:25.808Z,93.10
2022-07-30T01:52:53.382Z,92.80
2022-07-30T01:55:23.921Z,93.00
2022-07-30T01:57:52.253Z,93.30
2022-07-30T02:00:19.829Z,93.20
2022-07-30T02:02:47.432Z,93.40
2022-07-30T02:05:15.753Z,93.80
2022-07-30T02:07:46.075Z,93.80
2022-07-30T02:10:16.407Z,93.50
2022-07-30T02:12:43.969Z,93.30
2022-07-30T02:15:11.756Z,92.90
2022-07-30T02:17:45.465Z,93.10
2022-07-30T02:20:12.621Z,93.40
2022-07-30T02:22:40.961Z,94.10
2022-07-30T02:25:08.654Z,94.10
2022-07-30T02:27:38.302Z,95.00
2022-07-30T02:30:04.629Z,94.70
2022-07-30T02:32:32.264Z,94.90
2022-07-30T02:35:00.615Z,95.00
2022-07-30T02:37:43.036Z,94.90
2022-07-30T02:39:56.552Z,95.40
2022-07-30T02:42:24.125Z,95.40
2022-07-30T02:44:51.708Z,95.10
2022-07-30T02:47:19.314Z,95.30
2022-07-30T02:49:46.897Z,95.40
2022-07-30T02:52:14.461Z,95.60
2022-07-30T02:54:42.074Z,95.80
2022-07-30T02:57:09.649Z,96.00
2022-07-30T02:59:37.232Z,96.20
2022-07-30T03:02:04.898Z,96.50
2022-07-30T03:04:32.401Z,96.60
2022-07-30T03:07:02.604Z,96.80
2022-07-30T03:09:27.569Z,96.40
2022-07-30T03:11:55.172Z,96.60
2022-07-30T03:14:22.737Z,96.80
2022-07-30T03:16:50.321Z,96.80
2022-07-30T03:19:17.905Z,96.40
2022-07-30T03:21:45.491Z,96.50
2022-07-30T03:24:13.849Z,96.70
2022-07-30T03:26:41.434Z,96.70
2022-07-30T03:29:09.792Z,97.30
2022-07-30T03:31:37.870Z,97.30
2022-07-30T03:34:06.361Z,97.60
2022-07-30T03:36:32.528Z,97.80
2022-07-30T03:39:00.142Z,97.60
2022-07-30T03:41:28.494Z,98.10
2022-07-30T03:43:56.068Z,98.10
2022-07-30T03:46:23.720Z,98.20
2022-07-30T03:48:51.301Z,98.40
2022-07-30T03:51:18.820Z,98.00
2022-07-30T03:53:46.414Z,98.00
2022-07-30T03:56:14.756Z,98.40
2022-07-30T03:58:42.340Z,98.10
2022-07-30T04:01:09.943Z,98.30
2022-07-30T04:03:37.577Z,98.50
2022-07-30T04:06:05.110Z,98.60
2022-07-30T04:08:32.707Z,98.70
2022-07-30T04:11:01.047Z,99.00
2022-07-30T04:13:28.622Z,99.00
2022-07-30T04:16:39.617Z,99.00
2022-07-30T04:18:41.670Z,99.30
2022-07-30T04:21:16.023Z,98.80
2022-07-30T04:24:02.114Z,98.90
2022-07-30T04:26:04.382Z,99.10
2022-07-30T04:28:31.957Z,99.20
2022-07-30T04:30:59.587Z,99.30
2022-07-30T04:33:27.124Z,99.60
2022-07-30T04:35:55.477Z,99.90
2022-07-30T04:38:23.060Z,99.90
2022-07-30T04:40:51.393Z,99.90
2022-07-30T04:43:18.967Z,99.90
2022-07-30T04:45:46.610Z,99.90
2022-07-30T04:48:14.195Z,99.90
2022-07-30T04:50:41.779Z,99.90
2022-07-30T04:53:09.372Z,99.90
2022-07-30T04:55:36.956Z,99.90
2022-07-30T04:58:04.532Z,99.90
2022-07-30T05:00:32.631Z,99.90
2022-07-30T05:02:59.719Z,99.90
2022-07-30T05:05:27.316Z,99.90
2022-07-30T05:07:54.890Z,99.90
2022-07-30T05:10:22.462Z,99.90
2022-07-30T05:12:50.803Z,99.90
2022-07-30T05:15:18.417Z,99.90
2022-07-30T05:17:46.011Z,99.90
2022-07-30T05:20:13.583Z,99.90
2022-07-30T05:22:42.912Z,99.90
2022-07-30T05:25:16.077Z,99.90
2022-07-30T05:27:36.454Z,99.90
2022-07-30T05:30:04.954Z,99.90
2022-07-30T05:32:32.528Z,99.90
2022-07-30T05:35:00.111Z,99.90
2022-07-30T05:37:28.483Z,99.90
2022-07-30T05:40:02.477Z,99.90
2022-07-30T05:42:24.473Z,99.90
2022-07-30T05:44:52.033Z,99.90
2022-07-30T05:47:19.607Z,99.90
2022-07-30T05:49:47.384Z,99.90
2022-07-30T05:52:15.356Z,99.90
2022-07-30T05:54:42.929Z,99.90
2022-07-30T05:57:11.282Z,99.90
2022-07-30T05:59:39.260Z,99.90
2022-07-30T06:02:06.911Z,99.90
2022-07-30T06:04:34.461Z,99.90
2022-07-30T06:07:04.157Z,99.90
2022-07-30T06:09:36.928Z,99.90
2022-07-30T06:11:59.828Z,99.90
2022-07-30T06:14:27.441Z,99.90
2022-07-30T06:16:55.036Z,99.90
2022-07-30T06:19:22.611Z,99.90
2022-07-30T06:22:05.831Z,99.90
2022-07-30T06:24:19.334Z,99.90
2022-07-30T06:26:46.908Z,99.90
2022-07-30T06:29:14.541Z,99.90
2022-07-30T06:31:42.117Z,99.90
2022-07-30T06:34:09.700Z,99.90
2022-07-30T06:36:37.312Z,99.90
2022-07-30T06:39:04.936Z,99.60
2022-07-30T06:41:33.281Z,98.90
2022-07-30T06:44:00.922Z,98.90
2022-07-30T06:46:29.303Z,99.00
2022-07-30T06:48:56.857Z,98.70
2022-07-30T06:51:25.469Z,98.40
2022-07-30T06:53:53.033Z,98.40
2022-07-30T06:56:20.607Z,98.00
2022-07-30T06:58:49.257Z,96.30
2022-07-30T07:01:16.842Z,96.10
2022-07-30T07:03:44.413Z,95.70
2022-07-30T07:06:12.824Z,94.40
2022-07-30T07:08:40.408Z,94.00
2022-07-30T07:11:07.984Z,93.70
2022-07-30T07:13:35.605Z,93.20
2022-07-30T07:16:03.180Z,92.90
2022-07-30T07:18:30.756Z,92.70
2022-07-30T07:20:58.377Z,92.40
2022-07-30T07:23:25.951Z,92.10
2022-07-30T07:25:53.527Z,91.80
2022-07-30T07:28:21.149Z,91.60
2022-07-30T07:30:48.773Z,91.40
2022-07-30T07:33:16.507Z,91.00
2022-07-30T07:35:49.737Z,90.60
2022-07-30T07:38:12.272Z,90.20
2022-07-30T07:40:39.837Z,90.20
2022-07-30T07:43:07.460Z,89.90
2022-07-30T07:45:35.049Z,88.30
2022-07-30T07:48:02.628Z,87.20
2022-07-30T07:50:30.487Z,86.60
2022-07-30T07:52:58.052Z,86.10
2022-07-30T07:55:26.403Z,84.80
2022-07-30T07:57:54.110Z,84.60
2022-07-30T08:00:21.596Z,84.40
2022-07-30T08:02:49.230Z,82.90
2022-07-30T08:05:16.790Z,81.90
2022-07-30T08:07:45.132Z,80.70
2022-07-30T08:10:12.706Z,80.70
2022-07-30T08:12:41.087Z,78.90
2022-07-30T08:15:08.759Z,78.90
2022-07-30T08:17:42.930Z,77.90
2022-07-30T08:20:10.583Z,77.70
2022-07-30T08:22:38.158Z,77.60
2022-07-30T08:25:05.840Z,76.80
2022-07-30T08:27:33.581Z,76.80
2022-07-30T08:30:06.905Z,76.30
2022-07-30T08:32:34.463Z,75.70
2022-07-30T08:35:03.127Z,74.40
2022-07-30T08:37:30.745Z,74.40
2022-07-30T08:39:58.275Z,74.80
2022-07-30T08:42:26.657Z,72.20
2022-07-30T08:44:54.998Z,71.80
2022-07-30T08:47:22.575Z,71.60
2022-07-30T08:49:51.141Z,72.10
2022-07-30T08:52:18.715Z,71.10
2022-07-30T08:54:46.291Z,70.70
2022-07-30T08:57:14.662Z,68.10
2022-07-30T08:59:59.523Z,66.80
2022-07-30T09:02:13.114Z,66.20
2022-07-30T09:04:38.220Z,64.40
2022-07-30T09:07:05.805Z,61.90
2022-07-30T09:09:33.389Z,61.10
2022-07-30T09:12:01.771Z,60.10
2022-07-30T09:14:30.918Z,59.80
2022-07-30T09:16:57.697Z,59.80
2022-07-30T09:19:26.068Z,58.80
2022-07-30T09:22:00.436Z,57.30
2022-07-30T09:24:28.010Z,57.20
2022-07-30T09:26:58.540Z,56.80
2022-07-30T09:29:26.122Z,56.70
2022-07-30T09:31:53.697Z,57.10
2022-07-30T09:34:24.838Z,55.10
2022-07-30T09:36:52.392Z,54.40
2022-07-30T09:39:31.749Z,54.00
2022-07-30T09:42:00.429Z,51.60
2022-07-30T09:44:27.677Z,51.50
2022-07-30T09:46:56.057Z,51.40
2022-07-30T09:49:27.347Z,51.60
2022-07-30T09:51:56.947Z,51.60
2022-07-30T09:54:22.453Z,51.00
2022-07-30T09:56:54.082Z,49.80
2022-07-30T09:59:26.520Z,48.50
2022-07-30T10:02:00.786Z,48.50
2022-07-30T10:04:27.369Z,48.60
2022-07-30T10:06:54.983Z,47.70
2022-07-30T10:09:25.501Z,46.50
2022-07-30T10:11:56.789Z,45.20
2022-07-30T10:14:30.863Z,45.10
2022-07-30T10:16:51.936Z,44.40
2022-07-30T10:19:23.443Z,44.30
2022-07-30T10:21:47.901Z,42.70
2022-07-30T10:24:19.217Z,43.30
2022-07-30T10:26:46.791Z,43.30
2022-07-30T10:29:17.595Z,42.50
2022-07-30T10:31:48.126Z,41.80
2022-07-30T10:34:12.743Z,40.90
2022-07-30T10:36:52.045Z,40.70
2022-07-30T10:39:19.608Z,40.30
2022-07-30T10:42:11.907Z,40.30
2022-07-30T10:45:00.401Z,40.30
2022-07-30T10:47:33.606Z,40.50
2022-07-30T10:50:15.554Z,40.00
2022-07-30T10:52:46.068Z,39.90
2022-07-30T10:55:13.642Z,39.70
2022-07-30T10:58:08.342Z,39.50
2022-07-30T11:00:35.964Z,39.60
2022-07-30T11:03:22.213Z,39.40
2022-07-30T11:05:49.162Z,39.40
2022-07-30T11:08:31.963Z,39.20
2022-07-30T11:10:57.188Z,39.60
2022-07-30T11:13:46.178Z,39.60
2022-07-30T11:16:13.752Z,39.80
2022-07-30T11:21:36.863Z,39.70
2022-07-30T11:24:04.437Z,39.80
2022-07-30T11:26:41.014Z,39.80
2022-07-30T11:29:08.162Z,39.80
2022-07-30T11:31:55.031Z,39.50
2022-07-30T11:34:25.671Z,39.10
2022-07-30T11:37:18.621Z,39.00
2022-07-30T11:39:56.273Z,38.90
2022-07-30T11:42:31.990Z,38.90
2022-07-30T11:45:17.065Z,38.60
2022-07-30T11:47:50.299Z,38.50
2022-07-30T11:50:23.913Z,38.10
2022-07-30T11:52:53.745Z,38.10
2022-07-30T11:55:26.907Z,38.00
2022-07-30T11:57:54.476Z,37.40
2022-07-30T12:00:22.817Z,36.50
2022-07-30T12:05:23.715Z,35.80
2022-07-30T12:07:52.067Z,35.70
2022-07-30T12:10:26.946Z,35.60
2022-07-30T12:12:47.254Z,35.20
2022-07-30T12:15:30.110Z,35.00
2022-07-30T12:18:24.149Z,34.80
2022-07-30T12:20:26.048Z,34.80
2022-07-30T12:22:53.651Z,34.80
2022-07-30T12:25:21.226Z,35.00
2022-07-30T12:27:52.126Z,35.10
2022-07-30T12:30:16.678Z,34.70
2022-07-30T12:32:44.252Z,34.60
2022-07-30T12:35:11.835Z,34.60
2022-07-30T12:37:40.789Z,34.90
2022-07-30T12:40:11.703Z,34.90
2022-07-30T12:42:36.213Z,34.70
2022-07-30T12:45:03.826Z,34.80
2022-07-30T12:47:31.400Z,34.60
2022-07-30T12:49:58.995Z,35.50
2022-07-30T12:52:32.387Z,35.00
2022-07-30T12:55:09.051Z,34.70
2022-07-30T12:57:51.573Z,34.60
2022-07-30T13:00:19.141Z,34.60
2022-07-30T13:02:46.709Z,34.50
2022-07-30T13:05:15.091Z,34.10
2022-07-30T13:07:55.574Z,33.90
2022-07-30T13:10:27.218Z,33.40
2022-07-30T13:12:50.766Z,33.80
2022-07-30T13:15:21.054Z,33.60
2022-07-30T13:17:48.657Z,33.20
2022-07-30T13:20:16.999Z,34.60
2022-07-30T13:22:44.570Z,33.70
2022-07-30T13:25:12.174Z,33.90
2022-07-30T13:27:39.757Z,33.50
2022-07-30T13:30:07.564Z,33.70
2022-07-30T13:32:35.531Z,33.80
2022-07-30T13:35:03.104Z,33.90
2022-07-30T13:37:38.325Z,33.40
2022-07-30T13:39:58.299Z,33.50
2022-07-30T13:42:25.882Z,33.40
2022-07-30T13:44:54.244Z,34.50
2022-07-30T13:47:21.837Z,33.90
2022-07-30T13:49:49.417Z,33.70
2022-07-30T13:52:16.986Z,32.90
2022-07-30T13:54:44.895Z,33.20
2022-07-30T13:57:12.468Z,33.00
2022-07-30T13:59:40.821Z,33.00
2022-07-30T14:02:08.454Z,33.00
2022-07-30T14:04:36.038Z,33.10
2022-07-30T14:07:03.795Z,33.70
2022-07-30T14:09:31.226Z,33.40
2022-07-30T14:11:58.799Z,33.70
2022-07-30T14:14:26.384Z,33.60
2022-07-30T14:16:53.998Z,33.50
2022-07-30T14:19:23.530Z,33.80
2022-07-30T14:21:49.145Z,33.60
2022-07-30T14:24:16.760Z,33.90
2022-07-30T14:26:45.103Z,34.30
2022-07-30T14:29:12.690Z,34.30
2022-07-30T14:31:41.342Z,34.50
2022-07-30T14:34:08.936Z,34.40
2022-07-30T14:36:36.481Z,34.40
2022-07-30T14:39:04.104Z,34.70
2022-07-30T14:41:31.694Z,34.90
2022-07-30T14:43:59.274Z,34.90
2022-07-30T14:46:27.634Z,35.10
2022-07-30T14:48:55.265Z,34.80
2022-07-30T14:51:26.335Z,35.00
2022-07-30T14:53:51.194Z,34.80
2022-07-30T14:56:18.768Z,34.80
2022-07-30T14:58:46.350Z,34.90
2022-07-30T15:01:16.497Z,34.80
2022-07-30T15:03:41.549Z,35.00
2022-07-30T15:06:09.117Z,34.80
2022-07-30T15:08:36.718Z,34.60
2022-07-30T15:11:07.958Z,34.80
2022-07-30T15:13:31.865Z,34.60
2022-07-30T15:15:59.484Z,34.20
2022-07-30T15:18:27.820Z,34.40
2022-07-30T15:20:55.396Z,33.70
2022-07-30T15:23:23.008Z,33.70
2022-07-30T15:25:50.582Z,33.70
2022-07-30T15:28:18.156Z,33.40
2022-07-30T15:30:46.045Z,33.20
2022-07-30T15:33:13.620Z,33.30
2022-07-30T15:35:41.962Z,33.80
2022-07-30T15:38:09.575Z,33.10
2022-07-30T15:40:37.150Z,32.90
2022-07-30T15:43:06.815Z,33.00
2022-07-30T15:45:50.917Z,32.90
2022-07-30T15:48:00.679Z,33.20
2022-07-30T15:50:28.304Z,33.20
2022-07-30T15:52:55.908Z,33.50
2022-07-30T15:55:23.480Z,33.50
2022-07-30T15:57:51.056Z,33.60
2022-07-30T16:00:19.426Z,34.00
2022-07-30T16:02:47.000Z,33.70
2022-07-30T16:05:15.345Z,33.70
2022-07-30T16:07:42.978Z,33.00
2022-07-30T16:10:10.609Z,33.10
2022-07-30T16:12:38.961Z,33.80
2022-07-30T16:15:06.751Z,33.80
2022-07-30T16:17:34.325Z,34.00
2022-07-30T16:20:01.909Z,34.20
2022-07-30T16:22:29.523Z,34.20
2022-07-30T16:24:57.925Z,34.50
2022-07-30T16:27:25.501Z,34.40
2022-07-30T16:29:54.009Z,34.30
2022-07-30T16:32:21.586Z,34.40
2022-07-30T16:34:49.157Z,34.50
2022-07-30T16:37:17.627Z,35.20
2022-07-30T16:39:45.162Z,35.10
2022-07-30T16:42:12.735Z,35.50
2022-07-30T16:44:40.350Z,35.60
2022-07-30T16:47:13.265Z,35.70
2022-07-30T16:49:35.563Z,35.80
2022-07-30T16:52:04.407Z,35.80
2022-07-30T16:54:31.670Z,35.50
2022-07-30T16:56:59.245Z,35.40
2022-07-30T16:59:27.615Z,35.60
2022-07-30T17:01:55.958Z,35.70
2022-07-30T17:04:23.543Z,35.70
2022-07-30T17:06:51.186Z,35.70
2022-07-30T17:09:18.719Z,35.60
2022-07-30T17:12:03.522Z,35.30
2022-07-30T17:14:13.896Z,35.20
2022-07-30T17:16:42.239Z,34.90
2022-07-30T17:19:09.955Z,34.90
2022-07-30T17:21:37.409Z,35.00
2022-07-30T17:24:04.981Z,35.20
2022-07-30T17:26:32.555Z,35.20
2022-07-30T17:29:00.180Z,35.50
2022-07-30T17:31:28.522Z,36.10
2022-07-30T17:33:56.086Z,36.10
2022-07-30T17:36:23.699Z,36.40
2022-07-30T17:38:51.273Z,36.60
2022-07-30T17:41:18.849Z,36.70
2022-07-30T17:43:46.467Z,37.10
2022-07-30T17:46:14.037Z,37.30
2022-07-30T17:48:41.610Z,37.70
2022-07-30T17:51:09.223Z,37.80
2022-07-30T17:53:37.565Z,38.20
2022-07-30T17:56:05.139Z,38.10
2022-07-30T17:58:32.753Z,38.30
2022-07-30T18:01:00.415Z,38.70
2022-07-30T18:03:27.911Z,38.70
2022-07-30T18:05:55.515Z,38.60
2022-07-30T18:08:23.089Z,38.80
2022-07-30T18:10:50.668Z,39.00
2022-07-30T18:13:26.112Z,39.30
2022-07-30T18:15:46.619Z,40.30
2022-07-30T18:18:14.193Z,39.70
2022-07-30T18:20:47.957Z,40.10
2022-07-30T18:23:14.068Z,40.20
2022-07-30T18:25:51.850Z,40.40
2022-07-30T18:28:04.578Z,40.30
2022-07-30T18:30:32.153Z,40.50
2022-07-30T18:32:59.717Z,40.60
2022-07-30T18:35:27.320Z,40.90
2022-07-30T18:37:54.894Z,41.10
2022-07-30T18:40:24.203Z,41.40
2022-07-30T18:42:50.841Z,41.40
2022-07-30T18:45:19.183Z,41.80
2022-07-30T18:47:46.766Z,41.70
2022-07-30T18:50:15.281Z,42.20
2022-07-30T18:52:42.715Z,42.10
2022-07-30T18:55:11.093Z,42.30
2022-07-30T18:57:39.465Z,42.40
2022-07-30T19:00:07.856Z,42.50
2022-07-30T19:02:35.431Z,42.50
2022-07-30T19:05:03.059Z,42.60
2022-07-30T19:07:30.628Z,42.70
2022-07-30T19:09:58.973Z,43.10
2022-07-30T19:12:29.618Z,43.00
2022-07-30T19:14:57.182Z,43.40
2022-07-30T19:17:46.501Z,44.20
2022-07-30T19:19:53.127Z,44.30
2022-07-30T19:22:29.553Z,44.90
2022-07-30T19:24:49.033Z,44.90
2022-07-30T19:27:16.637Z,45.10
2022-07-30T19:29:44.201Z,45.40
2022-07-30T19:32:11.780Z,46.00
2022-07-30T19:34:39.370Z,46.40
2022-07-30T19:37:06.944Z,46.50
2022-07-30T19:39:35.018Z,46.80
2022-07-30T19:42:03.373Z,47.70
2022-07-30T19:44:31.248Z,47.80
2022-07-30T19:46:59.945Z,47.60
2022-07-30T19:49:29.650Z,47.70
2022-07-30T19:52:09.808Z,47.30
2022-07-30T19:54:21.722Z,47.00
2022-07-30T19:56:49.546Z,46.90
2022-07-30T19:59:17.120Z,46.80
2022-07-30T20:01:44.693Z,47.40
2022-07-30T20:04:12.307Z,48.00
2022-07-30T20:06:39.883Z,48.90
2022-07-30T20:09:10.255Z,49.10
2022-07-30T20:11:36.645Z,49.60
2022-07-30T20:14:03.627Z,50.20
2022-07-30T20:16:31.989Z,51.30
2022-07-30T20:18:59.626Z,51.30
2022-07-30T20:21:56.111Z,51.40
2022-07-30T20:23:55.557Z,51.30
2022-07-30T20:26:28.805Z,51.30
2022-07-30T20:28:52.492Z,51.70
2022-07-30T20:31:19.215Z,52.30
2022-07-30T20:33:50.225Z,52.60
2022-07-30T20:36:15.940Z,53.10
2022-07-30T20:38:43.504Z,53.00
2022-07-30T20:41:11.117Z,53.20
2022-07-30T20:43:46.266Z,53.30
2022-07-30T20:46:06.285Z,53.70
2022-07-30T20:48:36.763Z,53.50
2022-07-30T20:51:04.328Z,53.70
2022-07-30T20:53:37.029Z,54.10
2022-07-30T20:55:59.564Z,54.30
2022-07-30T20:58:27.139Z,54.50
2022-07-30T21:00:54.727Z,54.70
2022-07-30T21:03:23.282Z,55.00
2022-07-30T21:05:52.459Z,55.20
2022-07-30T21:08:18.439Z,55.50
2022-07-30T21:10:46.843Z,56.60
2022-07-30T21:13:14.396Z,56.60
2022-07-30T21:15:45.613Z,57.10
2022-07-30T21:18:09.632Z,57.30
2022-07-30T21:20:37.947Z,57.30
2022-07-30T21:23:10.067Z,57.20
2022-07-30T21:25:35.633Z,57.40
2022-07-30T21:28:03.303Z,57.60
2022-07-30T21:30:31.550Z,58.20
2022-07-30T21:32:59.163Z,58.00
2022-07-30T21:35:31.943Z,58.20
2022-07-30T21:37:54.318Z,58.60
2022-07-30T21:40:24.677Z,58.30
2022-07-30T21:42:50.432Z,58.60
2022-07-30T21:45:17.996Z,59.00
2022-07-30T21:47:47.959Z,59.60
2022-07-30T21:50:13.164Z,59.40
2022-07-30T21:52:40.737Z,59.60
2022-07-30T21:55:09.149Z,60.00
2022-07-30T21:57:36.723Z,60.00
2022-07-30T22:00:04.296Z,60.10
2022-07-30T22:02:31.910Z,60.30
2022-07-30T22:04:59.488Z,60.70
2022-07-30T22:07:27.064Z,61.20
2022-07-30T22:09:54.668Z,60.70
2022-07-30T22:12:22.241Z,60.90
2022-07-30T22:14:50.581Z,61.50
2022-07-30T22:17:23.613Z,61.50
2022-07-30T22:19:45.780Z,61.50
2022-07-30T22:22:27.100Z,61.30
2022-07-30T22:24:40.962Z,60.90
2022-07-30T22:27:10.867Z,61.30
2022-07-30T22:29:36.873Z,61.20
2022-07-30T22:32:04.925Z,61.60
2022-07-30T22:34:32.100Z,62.00
2022-07-30T22:36:59.743Z,62.20
2022-07-30T22:39:31.758Z,62.80
2022-07-30T22:41:54.921Z,63.20
2022-07-30T22:44:22.496Z,63.40
2022-07-30T22:46:56.265Z,63.60
2022-07-30T22:49:23.404Z,63.60
2022-07-30T22:52:02.824Z,63.90
2022-07-30T22:54:13.708Z,64.40
2022-07-30T22:56:41.950Z,64.60
2022-07-30T22:59:09.515Z,64.60
2022-07-30T23:01:41.265Z,64.00
2022-07-30T23:04:04.715Z,64.20
2022-07-30T23:06:32.287Z,64.80
2022-07-30T23:09:00.176Z,64.50
2022-07-30T23:11:37.656Z,65.00
2022-07-30T23:13:56.092Z,65.70
2022-07-30T23:16:23.697Z,65.60
2022-07-30T23:18:52.038Z,66.40
2022-07-30T23:21:19.612Z,67.10
2022-07-30T23:23:47.224Z,66.70
2022-07-30T23:26:14.800Z,66.80
2022-07-30T23:28:42.375Z,66.80
2022-07-30T23:31:09.987Z,67.10
2022-07-30T23:33:37.561Z,67.20
2022-07-30T23:36:05.136Z,66.90
2022-07-30T23:38:33.024Z,66.60
2022-07-30T23:41:00.599Z,67.00
2022-07-30T23:43:28.941Z,68.70
2022-07-30T23:45:57.745Z,68.40
2022-07-30T23:48:25.332Z,68.00
2022-07-30T23:50:53.672Z,68.70
2022-07-30T23:53:21.285Z,68.10
2022-07-30T23:55:48.860Z,68.40
2022-07-30T23:58:16.433Z,69.40
